sensor_id;sensor_type;location;lat;lon;timestamp;P1;durP1;ratioP1;P2;durP2;ratioP2
19869;SDS011;10097;50.862;4.696;2023-04-24T00:00:45;17.03;;;8.50;;
19869;SDS011;10097;50.862;4.696;2023-04-24T00:03:12;19.83;;;9.50;;
19869;SDS011;10097;50.862;4.696;2023-04-24T00:05:37;19.57;;;9.03;;
19869;SDS011;10097;50.862;4.696;2023-04-24T00:08:05;16.77;;;9.70;;
19869;SDS011;10097;50.862;4.696;2023-04-24T00:10:31;18.97;;;9.60;;
19869;SDS011;10097;50.862;4.696;2023-04-24T00:12:57;20.00;;;10.10;;
19869;SDS011;10097;50.862;4.696;2023-04-24T00:15:22;17.70;;;9.40;;
19869;SDS011;10097;50.862;4.696;2023-04-24T00:17:48;22.17;;;10.13;;
19869;SDS011;10097;50.862;4.696;2023-04-24T00:20:14;21.93;;;10.13;;
19869;SDS011;10097;50.862;4.696;2023-04-24T00:22:39;21.60;;;9.80;;
19869;SDS011;10097;50.862;4.696;2023-04-24T00:25:05;20.03;;;10.27;;
19869;SDS011;10097;50.862;4.696;2023-04-24T00:27:31;20.23;;;9.33;;
19869;SDS011;10097;50.862;4.696;2023-04-24T00:29:57;23.70;;;10.50;;
19869;SDS011;10097;50.862;4.696;2023-04-24T00:32:22;19.57;;;9.87;;
19869;SDS011;10097;50.862;4.696;2023-04-24T00:34:48;26.93;;;9.43;;
19869;SDS011;10097;50.862;4.696;2023-04-24T00:37:14;24.40;;;9.80;;
19869;SDS011;10097;50.862;4.696;2023-04-24T00:39:40;26.33;;;10.03;;
19869;SDS011;10097;50.862;4.696;2023-04-24T00:42:05;20.50;;;9.60;;
19869;SDS011;10097;50.862;4.696;2023-04-24T00:44:32;25.23;;;10.13;;
19869;SDS011;10097;50.862;4.696;2023-04-24T00:46:59;21.87;;;9.80;;
19869;SDS011;10097;50.862;4.696;2023-04-24T00:49:25;24.33;;;9.93;;
19869;SDS011;10097;50.862;4.696;2023-04-24T00:51:51;19.60;;;9.40;;
19869;SDS011;10097;50.862;4.696;2023-04-24T00:54:19;22.83;;;9.83;;
19869;SDS011;10097;50.862;4.696;2023-04-24T00:56:44;28.07;;;10.03;;
19869;SDS011;10097;50.862;4.696;2023-04-24T00:59:14;22.47;;;10.47;;
19869;SDS011;10097;50.862;4.696;2023-04-24T01:01:42;18.70;;;9.30;;
19869;SDS011;10097;50.862;4.696;2023-04-24T01:04:09;19.03;;;9.63;;
19869;SDS011;10097;50.862;4.696;2023-04-24T01:06:36;23.90;;;10.40;;
19869;SDS011;10097;50.862;4.696;2023-04-24T01:09:04;20.63;;;9.77;;
19869;SDS011;10097;50.862;4.696;2023-04-24T01:11:33;19.83;;;9.77;;
19869;SDS011;10097;50.862;4.696;2023-04-24T01:13:58;20.03;;;9.50;;
19869;SDS011;10097;50.862;4.696;2023-04-24T01:16:25;20.70;;;9.33;;
19869;SDS011;10097;50.862;4.696;2023-04-24T01:18:51;21.70;;;9.60;;
19869;SDS011;10097;50.862;4.696;2023-04-24T01:21:16;20.13;;;9.50;;
19869;SDS011;10097;50.862;4.696;2023-04-24T01:23:44;24.57;;;11.00;;
19869;SDS011;10097;50.862;4.696;2023-04-24T01:26:10;25.27;;;9.17;;
19869;SDS011;10097;50.862;4.696;2023-04-24T01:28:37;18.63;;;9.03;;
19869;SDS011;10097;50.862;4.696;2023-04-24T01:31:03;26.50;;;9.57;;
19869;SDS011;10097;50.862;4.696;2023-04-24T01:33:29;18.87;;;9.43;;
19869;SDS011;10097;50.862;4.696;2023-04-24T01:35:55;19.77;;;8.47;;
19869;SDS011;10097;50.862;4.696;2023-04-24T01:38:22;16.20;;;8.40;;
19869;SDS011;10097;50.862;4.696;2023-04-24T01:40:48;17.80;;;8.47;;
19869;SDS011;10097;50.862;4.696;2023-04-24T01:43:15;18.43;;;9.13;;
19869;SDS011;10097;50.862;4.696;2023-04-24T01:45:41;17.30;;;9.00;;
19869;SDS011;10097;50.862;4.696;2023-04-24T01:48:06;20.10;;;8.90;;
19869;SDS011;10097;50.862;4.696;2023-04-24T01:50:32;17.20;;;8.70;;
19869;SDS011;10097;50.862;4.696;2023-04-24T01:52:58;20.50;;;9.40;;
19869;SDS011;10097;50.862;4.696;2023-04-24T01:55:24;24.13;;;9.33;;
19869;SDS011;10097;50.862;4.696;2023-04-24T01:57:55;19.07;;;9.27;;
19869;SDS011;10097;50.862;4.696;2023-04-24T02:00:21;18.60;;;9.03;;
19869;SDS011;10097;50.862;4.696;2023-04-24T02:02:47;18.53;;;9.33;;
19869;SDS011;10097;50.862;4.696;2023-04-24T02:05:13;16.77;;;9.13;;
19869;SDS011;10097;50.862;4.696;2023-04-24T02:07:39;19.93;;;9.13;;
19869;SDS011;10097;50.862;4.696;2023-04-24T02:10:05;16.87;;;8.50;;
19869;SDS011;10097;50.862;4.696;2023-04-24T02:12:31;18.40;;;9.30;;
19869;SDS011;10097;50.862;4.696;2023-04-24T02:14:57;18.97;;;9.00;;
19869;SDS011;10097;50.862;4.696;2023-04-24T02:17:23;19.13;;;9.67;;
19869;SDS011;10097;50.862;4.696;2023-04-24T02:19:49;19.57;;;9.27;;
19869;SDS011;10097;50.862;4.696;2023-04-24T02:22:14;17.97;;;10.30;;
19869;SDS011;10097;50.862;4.696;2023-04-24T02:24:40;20.87;;;10.13;;
19869;SDS011;10097;50.862;4.696;2023-04-24T02:27:06;22.80;;;10.63;;
19869;SDS011;10097;50.862;4.696;2023-04-24T02:29:31;20.00;;;10.23;;
19869;SDS011;10097;50.862;4.696;2023-04-24T02:31:57;18.47;;;10.57;;
19869;SDS011;10097;50.862;4.696;2023-04-24T02:34:23;22.30;;;10.40;;
19869;SDS011;10097;50.862;4.696;2023-04-24T02:36:49;19.00;;;10.13;;
19869;SDS011;10097;50.862;4.696;2023-04-24T02:39:14;20.40;;;12.27;;
19869;SDS011;10097;50.862;4.696;2023-04-24T02:41:41;21.77;;;11.37;;
19869;SDS011;10097;50.862;4.696;2023-04-24T02:44:08;19.33;;;11.30;;
19869;SDS011;10097;50.862;4.696;2023-04-24T02:46:34;25.27;;;11.57;;
19869;SDS011;10097;50.862;4.696;2023-04-24T02:49:00;21.53;;;11.80;;
19869;SDS011;10097;50.862;4.696;2023-04-24T02:51:26;21.67;;;11.97;;
19869;SDS011;10097;50.862;4.696;2023-04-24T02:53:52;18.73;;;10.90;;
19869;SDS011;10097;50.862;4.696;2023-04-24T02:56:17;19.03;;;11.17;;
19869;SDS011;10097;50.862;4.696;2023-04-24T02:58:43;21.30;;;10.67;;
19869;SDS011;10097;50.862;4.696;2023-04-24T03:01:09;18.87;;;10.63;;
19869;SDS011;10097;50.862;4.696;2023-04-24T03:03:35;23.37;;;11.67;;
19869;SDS011;10097;50.862;4.696;2023-04-24T03:06:01;21.67;;;11.40;;
19869;SDS011;10097;50.862;4.696;2023-04-24T03:08:27;23.20;;;11.03;;
19869;SDS011;10097;50.862;4.696;2023-04-24T03:10:53;23.37;;;10.97;;
19869;SDS011;10097;50.862;4.696;2023-04-24T03:13:18;22.07;;;10.97;;
19869;SDS011;10097;50.862;4.696;2023-04-24T03:15:44;19.00;;;10.17;;
19869;SDS011;10097;50.862;4.696;2023-04-24T03:18:13;22.63;;;10.50;;
19869;SDS011;10097;50.862;4.696;2023-04-24T03:20:38;18.77;;;9.80;;
19869;SDS011;10097;50.862;4.696;2023-04-24T03:23:04;17.97;;;9.27;;
19869;SDS011;10097;50.862;4.696;2023-04-24T03:25:30;18.87;;;9.33;;
19869;SDS011;10097;50.862;4.696;2023-04-24T03:27:56;18.50;;;9.63;;
19869;SDS011;10097;50.862;4.696;2023-04-24T03:30:21;22.63;;;9.87;;
19869;SDS011;10097;50.862;4.696;2023-04-24T03:32:47;15.40;;;8.30;;
19869;SDS011;10097;50.862;4.696;2023-04-24T03:35:13;17.37;;;8.33;;
19869;SDS011;10097;50.862;4.696;2023-04-24T03:37:38;15.60;;;8.47;;
19869;SDS011;10097;50.862;4.696;2023-04-24T03:40:04;17.33;;;9.37;;
19869;SDS011;10097;50.862;4.696;2023-04-24T03:42:32;18.07;;;8.70;;
19869;SDS011;10097;50.862;4.696;2023-04-24T03:44:57;16.80;;;8.73;;
19869;SDS011;10097;50.862;4.696;2023-04-24T03:47:23;17.40;;;9.17;;
19869;SDS011;10097;50.862;4.696;2023-04-24T03:49:49;19.20;;;9.30;;
19869;SDS011;10097;50.862;4.696;2023-04-24T03:52:15;18.60;;;9.87;;
19869;SDS011;10097;50.862;4.696;2023-04-24T03:54:40;15.13;;;8.73;;
19869;SDS011;10097;50.862;4.696;2023-04-24T03:57:09;17.10;;;8.53;;
19869;SDS011;10097;50.862;4.696;2023-04-24T03:59:34;14.00;;;8.03;;
19869;SDS011;10097;50.862;4.696;2023-04-24T04:02:00;17.70;;;8.53;;
19869;SDS011;10097;50.862;4.696;2023-04-24T04:04:26;16.37;;;8.10;;
19869;SDS011;10097;50.862;4.696;2023-04-24T04:06:51;13.77;;;7.30;;
19869;SDS011;10097;50.862;4.696;2023-04-24T04:09:18;12.87;;;6.73;;
19869;SDS011;10097;50.862;4.696;2023-04-24T04:11:44;14.43;;;6.43;;
19869;SDS011;10097;50.862;4.696;2023-04-24T04:14:10;14.73;;;6.37;;
19869;SDS011;10097;50.862;4.696;2023-04-24T04:16:35;16.17;;;7.13;;
19869;SDS011;10097;50.862;4.696;2023-04-24T04:19:01;15.53;;;6.43;;
19869;SDS011;10097;50.862;4.696;2023-04-24T04:21:28;14.50;;;6.20;;
19869;SDS011;10097;50.862;4.696;2023-04-24T04:23:56;12.33;;;5.60;;
19869;SDS011;10097;50.862;4.696;2023-04-24T04:26:21;10.67;;;5.10;;
19869;SDS011;10097;50.862;4.696;2023-04-24T04:28:50;9.13;;;4.83;;
19869;SDS011;10097;50.862;4.696;2023-04-24T04:31:19;14.23;;;5.70;;
19869;SDS011;10097;50.862;4.696;2023-04-24T04:33:46;12.00;;;5.50;;
19869;SDS011;10097;50.862;4.696;2023-04-24T04:36:11;11.00;;;5.00;;
19869;SDS011;10097;50.862;4.696;2023-04-24T04:38:37;9.67;;;4.77;;
19869;SDS011;10097;50.862;4.696;2023-04-24T04:41:03;13.67;;;5.53;;
19869;SDS011;10097;50.862;4.696;2023-04-24T04:43:29;9.20;;;5.00;;
19869;SDS011;10097;50.862;4.696;2023-04-24T04:45:55;11.50;;;5.47;;
19869;SDS011;10097;50.862;4.696;2023-04-24T04:48:22;10.83;;;5.10;;
19869;SDS011;10097;50.862;4.696;2023-04-24T04:50:48;11.37;;;5.30;;
19869;SDS011;10097;50.862;4.696;2023-04-24T04:53:13;11.47;;;5.43;;
19869;SDS011;10097;50.862;4.696;2023-04-24T04:55:39;9.83;;;5.13;;
19869;SDS011;10097;50.862;4.696;2023-04-24T04:58:05;15.60;;;5.07;;
19869;SDS011;10097;50.862;4.696;2023-04-24T05:00:31;11.97;;;4.83;;
19869;SDS011;10097;50.862;4.696;2023-04-24T05:03:00;12.13;;;5.53;;
19869;SDS011;10097;50.862;4.696;2023-04-24T05:05:26;10.23;;;4.97;;
19869;SDS011;10097;50.862;4.696;2023-04-24T05:07:52;10.57;;;5.57;;
19869;SDS011;10097;50.862;4.696;2023-04-24T05:10:18;10.80;;;5.63;;
19869;SDS011;10097;50.862;4.696;2023-04-24T05:12:43;19.10;;;6.57;;
19869;SDS011;10097;50.862;4.696;2023-04-24T05:15:09;10.70;;;5.80;;
19869;SDS011;10097;50.862;4.696;2023-04-24T05:17:35;15.23;;;6.60;;
19869;SDS011;10097;50.862;4.696;2023-04-24T05:20:02;13.07;;;6.90;;
19869;SDS011;10097;50.862;4.696;2023-04-24T05:22:30;15.33;;;6.77;;
19869;SDS011;10097;50.862;4.696;2023-04-24T05:24:56;12.67;;;6.53;;
19869;SDS011;10097;50.862;4.696;2023-04-24T05:27:22;13.83;;;6.77;;
19869;SDS011;10097;50.862;4.696;2023-04-24T05:29:49;14.87;;;7.33;;
19869;SDS011;10097;50.862;4.696;2023-04-24T05:32:15;15.30;;;7.03;;
19869;SDS011;10097;50.862;4.696;2023-04-24T05:34:40;16.10;;;7.67;;
19869;SDS011;10097;50.862;4.696;2023-04-24T05:37:06;18.10;;;8.63;;
19869;SDS011;10097;50.862;4.696;2023-04-24T05:39:34;18.33;;;7.90;;
19869;SDS011;10097;50.862;4.696;2023-04-24T05:42:01;20.10;;;8.27;;
19869;SDS011;10097;50.862;4.696;2023-04-24T05:44:29;16.30;;;8.23;;
19869;SDS011;10097;50.862;4.696;2023-04-24T05:46:55;21.17;;;8.37;;
19869;SDS011;10097;50.862;4.696;2023-04-24T05:49:21;16.43;;;8.30;;
19869;SDS011;10097;50.862;4.696;2023-04-24T05:51:50;20.30;;;9.23;;
19869;SDS011;10097;50.862;4.696;2023-04-24T05:54:15;20.30;;;8.17;;
19869;SDS011;10097;50.862;4.696;2023-04-24T05:56:41;16.27;;;8.40;;
19869;SDS011;10097;50.862;4.696;2023-04-24T05:59:08;18.20;;;8.77;;
19869;SDS011;10097;50.862;4.696;2023-04-24T06:01:33;20.17;;;9.30;;
19869;SDS011;10097;50.862;4.696;2023-04-24T06:04:01;21.80;;;9.97;;
19869;SDS011;10097;50.862;4.696;2023-04-24T06:06:27;20.17;;;9.80;;
19869;SDS011;10097;50.862;4.696;2023-04-24T06:08:53;19.33;;;9.87;;
19869;SDS011;10097;50.862;4.696;2023-04-24T06:11:19;21.83;;;10.40;;
19869;SDS011;10097;50.862;4.696;2023-04-24T06:13:45;19.77;;;9.20;;
19869;SDS011;10097;50.862;4.696;2023-04-24T06:16:11;19.93;;;10.13;;
19869;SDS011;10097;50.862;4.696;2023-04-24T06:18:36;24.47;;;10.07;;
19869;SDS011;10097;50.862;4.696;2023-04-24T06:21:02;26.03;;;10.33;;
19869;SDS011;10097;50.862;4.696;2023-04-24T06:23:28;21.67;;;11.00;;
19869;SDS011;10097;50.862;4.696;2023-04-24T06:25:54;23.60;;;11.03;;
19869;SDS011;10097;50.862;4.696;2023-04-24T06:28:20;20.83;;;11.13;;
19869;SDS011;10097;50.862;4.696;2023-04-24T06:30:45;22.07;;;11.03;;
19869;SDS011;10097;50.862;4.696;2023-04-24T06:33:11;23.17;;;11.73;;
19869;SDS011;10097;50.862;4.696;2023-04-24T06:35:37;23.90;;;10.87;;
19869;SDS011;10097;50.862;4.696;2023-04-24T06:38:05;20.60;;;11.60;;
19869;SDS011;10097;50.862;4.696;2023-04-24T06:40:31;21.57;;;12.57;;
19869;SDS011;10097;50.862;4.696;2023-04-24T06:42:56;21.97;;;12.07;;
19869;SDS011;10097;50.862;4.696;2023-04-24T06:45:25;23.07;;;12.40;;
19869;SDS011;10097;50.862;4.696;2023-04-24T06:47:52;27.63;;;12.77;;
19869;SDS011;10097;50.862;4.696;2023-04-24T06:50:17;24.73;;;11.90;;
19869;SDS011;10097;50.862;4.696;2023-04-24T06:52:43;23.47;;;12.03;;
19869;SDS011;10097;50.862;4.696;2023-04-24T06:55:09;23.27;;;10.87;;
19869;SDS011;10097;50.862;4.696;2023-04-24T06:57:36;25.07;;;12.23;;
19869;SDS011;10097;50.862;4.696;2023-04-24T07:00:02;25.97;;;12.07;;
19869;SDS011;10097;50.862;4.696;2023-04-24T07:02:30;23.03;;;12.67;;
19869;SDS011;10097;50.862;4.696;2023-04-24T07:04:55;25.07;;;13.00;;
19869;SDS011;10097;50.862;4.696;2023-04-24T07:07:22;26.97;;;14.50;;
19869;SDS011;10097;50.862;4.696;2023-04-24T07:09:48;26.37;;;14.07;;
19869;SDS011;10097;50.862;4.696;2023-04-24T07:12:15;28.50;;;14.63;;
19869;SDS011;10097;50.862;4.696;2023-04-24T07:14:42;26.53;;;13.33;;
19869;SDS011;10097;50.862;4.696;2023-04-24T07:17:07;29.97;;;14.33;;
19869;SDS011;10097;50.862;4.696;2023-04-24T07:19:34;27.87;;;13.73;;
19869;SDS011;10097;50.862;4.696;2023-04-24T07:22:02;26.93;;;12.93;;
19869;SDS011;10097;50.862;4.696;2023-04-24T07:24:28;30.03;;;13.90;;
19869;SDS011;10097;50.862;4.696;2023-04-24T07:26:54;30.27;;;14.90;;
19869;SDS011;10097;50.862;4.696;2023-04-24T07:29:20;28.10;;;14.00;;
19869;SDS011;10097;50.862;4.696;2023-04-24T07:31:46;30.87;;;14.23;;
19869;SDS011;10097;50.862;4.696;2023-04-24T07:34:12;28.03;;;13.47;;
19869;SDS011;10097;50.862;4.696;2023-04-24T07:36:37;30.40;;;14.07;;
19869;SDS011;10097;50.862;4.696;2023-04-24T07:39:03;32.67;;;13.87;;
19869;SDS011;10097;50.862;4.696;2023-04-24T07:41:30;26.27;;;13.40;;
19869;SDS011;10097;50.862;4.696;2023-04-24T07:43:55;27.07;;;13.27;;
19869;SDS011;10097;50.862;4.696;2023-04-24T07:46:21;27.67;;;13.43;;
19869;SDS011;10097;50.862;4.696;2023-04-24T07:48:48;30.53;;;12.43;;
19869;SDS011;10097;50.862;4.696;2023-04-24T07:51:14;28.70;;;12.90;;
19869;SDS011;10097;50.862;4.696;2023-04-24T07:53:40;24.30;;;11.97;;
19869;SDS011;10097;50.862;4.696;2023-04-24T07:56:06;28.27;;;12.93;;
19869;SDS011;10097;50.862;4.696;2023-04-24T07:58:32;29.57;;;11.67;;
19869;SDS011;10097;50.862;4.696;2023-04-24T08:00:58;21.87;;;10.80;;
19869;SDS011;10097;50.862;4.696;2023-04-24T08:03:23;25.63;;;10.67;;
19869;SDS011;10097;50.862;4.696;2023-04-24T08:05:49;21.37;;;10.60;;
19869;SDS011;10097;50.862;4.696;2023-04-24T08:08:16;23.13;;;11.30;;
19869;SDS011;10097;50.862;4.696;2023-04-24T08:10:41;27.10;;;11.40;;
19869;SDS011;10097;50.862;4.696;2023-04-24T08:13:07;23.10;;;10.17;;
19869;SDS011;10097;50.862;4.696;2023-04-24T08:15:33;23.73;;;10.20;;
19869;SDS011;10097;50.862;4.696;2023-04-24T08:17:59;20.73;;;10.17;;
19869;SDS011;10097;50.862;4.696;2023-04-24T08:20:25;25.87;;;9.63;;
19869;SDS011;10097;50.862;4.696;2023-04-24T08:22:51;17.53;;;7.83;;
19869;SDS011;10097;50.862;4.696;2023-04-24T08:25:16;20.40;;;8.93;;
19869;SDS011;10097;50.862;4.696;2023-04-24T08:27:44;23.20;;;9.23;;
19869;SDS011;10097;50.862;4.696;2023-04-24T08:30:10;17.63;;;7.50;;
19869;SDS011;10097;50.862;4.696;2023-04-24T08:32:36;15.43;;;6.63;;
19869;SDS011;10097;50.862;4.696;2023-04-24T08:35:02;19.17;;;7.77;;
19869;SDS011;10097;50.862;4.696;2023-04-24T08:37:29;20.77;;;7.47;;
19869;SDS011;10097;50.862;4.696;2023-04-24T08:39:55;23.80;;;7.73;;
19869;SDS011;10097;50.862;4.696;2023-04-24T08:42:21;20.73;;;8.50;;
19869;SDS011;10097;50.862;4.696;2023-04-24T08:44:48;24.43;;;7.93;;
19869;SDS011;10097;50.862;4.696;2023-04-24T08:47:15;20.33;;;8.27;;
19869;SDS011;10097;50.862;4.696;2023-04-24T08:49:41;22.93;;;8.23;;
19869;SDS011;10097;50.862;4.696;2023-04-24T08:52:08;19.47;;;8.10;;
19869;SDS011;10097;50.862;4.696;2023-04-24T08:54:35;21.83;;;6.87;;
19869;SDS011;10097;50.862;4.696;2023-04-24T08:57:01;15.50;;;6.13;;
19869;SDS011;10097;50.862;4.696;2023-04-24T08:59:29;28.17;;;6.20;;
19869;SDS011;10097;50.862;4.696;2023-04-24T09:01:55;15.60;;;6.03;;
19869;SDS011;10097;50.862;4.696;2023-04-24T09:04:22;16.33;;;6.30;;
19869;SDS011;10097;50.862;4.696;2023-04-24T09:06:53;15.77;;;5.73;;
19869;SDS011;10097;50.862;4.696;2023-04-24T09:09:22;15.53;;;5.00;;
19869;SDS011;10097;50.862;4.696;2023-04-24T09:11:51;19.07;;;5.63;;
19869;SDS011;10097;50.862;4.696;2023-04-24T09:14:20;12.63;;;4.93;;
19869;SDS011;10097;50.862;4.696;2023-04-24T09:16:46;17.43;;;5.50;;
19869;SDS011;10097;50.862;4.696;2023-04-24T09:19:12;16.70;;;5.03;;
19869;SDS011;10097;50.862;4.696;2023-04-24T09:21:38;13.83;;;5.00;;
19869;SDS011;10097;50.862;4.696;2023-04-24T09:24:04;18.10;;;5.10;;
19869;SDS011;10097;50.862;4.696;2023-04-24T09:26:36;14.67;;;4.67;;
19869;SDS011;10097;50.862;4.696;2023-04-24T09:29:02;18.23;;;6.27;;
19869;SDS011;10097;50.862;4.696;2023-04-24T09:31:29;15.50;;;5.27;;
19869;SDS011;10097;50.862;4.696;2023-04-24T09:33:59;21.43;;;5.27;;
19869;SDS011;10097;50.862;4.696;2023-04-24T09:36:30;13.17;;;5.00;;
19869;SDS011;10097;50.862;4.696;2023-04-24T09:39:03;22.60;;;6.73;;
19869;SDS011;10097;50.862;4.696;2023-04-24T09:41:31;13.83;;;4.43;;
19869;SDS011;10097;50.862;4.696;2023-04-24T09:43:58;13.80;;;4.63;;
19869;SDS011;10097;50.862;4.696;2023-04-24T09:46:59;11.60;;;3.77;;
19869;SDS011;10097;50.862;4.696;2023-04-24T09:49:29;10.73;;;3.90;;
19869;SDS011;10097;50.862;4.696;2023-04-24T09:55:00;10.83;;;4.00;;
19869;SDS011;10097;50.862;4.696;2023-04-24T09:57:31;15.93;;;4.70;;
19869;SDS011;10097;50.862;4.696;2023-04-24T09:59:57;12.30;;;3.07;;
19869;SDS011;10097;50.862;4.696;2023-04-24T10:02:22;12.03;;;3.43;;
19869;SDS011;10097;50.862;4.696;2023-04-24T10:04:55;11.97;;;3.80;;
19869;SDS011;10097;50.862;4.696;2023-04-24T10:07:21;11.40;;;3.53;;
19869;SDS011;10097;50.862;4.696;2023-04-24T10:09:47;14.13;;;3.77;;
19869;SDS011;10097;50.862;4.696;2023-04-24T10:12:13;16.47;;;3.87;;
19869;SDS011;10097;50.862;4.696;2023-04-24T10:14:40;9.60;;;3.57;;
19869;SDS011;10097;50.862;4.696;2023-04-24T10:17:06;13.20;;;3.40;;
19869;SDS011;10097;50.862;4.696;2023-04-24T10:19:32;14.13;;;3.97;;
19869;SDS011;10097;50.862;4.696;2023-04-24T10:22:00;11.77;;;3.37;;
19869;SDS011;10097;50.862;4.696;2023-04-24T10:24:27;16.57;;;3.80;;
19869;SDS011;10097;50.862;4.696;2023-04-24T10:26:54;17.43;;;3.70;;
19869;SDS011;10097;50.862;4.696;2023-04-24T10:29:21;12.03;;;3.10;;
19869;SDS011;10097;50.862;4.696;2023-04-24T10:31:48;12.37;;;3.03;;
19869;SDS011;10097;50.862;4.696;2023-04-24T10:34:14;13.63;;;3.47;;
19869;SDS011;10097;50.862;4.696;2023-04-24T10:36:43;15.43;;;3.53;;
19869;SDS011;10097;50.862;4.696;2023-04-24T10:39:13;10.33;;;3.10;;
19869;SDS011;10097;50.862;4.696;2023-04-24T10:41:41;10.77;;;3.47;;
19869;SDS011;10097;50.862;4.696;2023-04-24T10:44:07;9.90;;;2.73;;
19869;SDS011;10097;50.862;4.696;2023-04-24T10:46:37;10.07;;;3.23;;
19869;SDS011;10097;50.862;4.696;2023-04-24T10:49:07;11.80;;;3.50;;
19869;SDS011;10097;50.862;4.696;2023-04-24T10:51:52;9.83;;;3.20;;
19869;SDS011;10097;50.862;4.696;2023-04-24T10:54:22;14.70;;;3.20;;
19869;SDS011;10097;50.862;4.696;2023-04-24T10:56:48;10.33;;;3.50;;
19869;SDS011;10097;50.862;4.696;2023-04-24T10:59:23;12.13;;;3.13;;
19869;SDS011;10097;50.862;4.696;2023-04-24T11:01:54;11.47;;;3.43;;
19869;SDS011;10097;50.862;4.696;2023-04-24T11:04:28;10.83;;;3.00;;
19869;SDS011;10097;50.862;4.696;2023-04-24T11:06:55;10.73;;;3.57;;
19869;SDS011;10097;50.862;4.696;2023-04-24T11:09:21;11.60;;;3.10;;
19869;SDS011;10097;50.862;4.696;2023-04-24T11:11:47;8.70;;;3.30;;
19869;SDS011;10097;50.862;4.696;2023-04-24T11:14:16;11.27;;;3.40;;
19869;SDS011;10097;50.862;4.696;2023-04-24T11:16:45;11.53;;;3.57;;
19869;SDS011;10097;50.862;4.696;2023-04-24T11:21:55;9.83;;;3.67;;
19869;SDS011;10097;50.862;4.696;2023-04-24T11:27:13;10.20;;;3.43;;
19869;SDS011;10097;50.862;4.696;2023-04-24T11:37:50;10.93;;;3.40;;
19869;SDS011;10097;50.862;4.696;2023-04-24T11:40:20;8.17;;;2.97;;
19869;SDS011;10097;50.862;4.696;2023-04-24T11:42:53;13.63;;;3.80;;
19869;SDS011;10097;50.862;4.696;2023-04-24T11:45:24;11.27;;;3.60;;
19869;SDS011;10097;50.862;4.696;2023-04-24T11:47:53;9.70;;;3.70;;
19869;SDS011;10097;50.862;4.696;2023-04-24T11:50:23;15.57;;;3.83;;
19869;SDS011;10097;50.862;4.696;2023-04-24T11:52:51;9.97;;;3.50;;
19869;SDS011;10097;50.862;4.696;2023-04-24T11:57:44;13.83;;;3.80;;
19869;SDS011;10097;50.862;4.696;2023-04-24T12:00:18;9.40;;;3.43;;
19869;SDS011;10097;50.862;4.696;2023-04-24T12:02:48;13.63;;;3.30;;
19869;SDS011;10097;50.862;4.696;2023-04-24T12:05:25;13.00;;;3.80;;
19869;SDS011;10097;50.862;4.696;2023-04-24T12:07:52;11.27;;;3.60;;
19869;SDS011;10097;50.862;4.696;2023-04-24T12:10:22;8.37;;;3.17;;
19869;SDS011;10097;50.862;4.696;2023-04-24T12:12:52;9.77;;;3.13;;
19869;SDS011;10097;50.862;4.696;2023-04-24T12:15:19;9.97;;;3.40;;
19869;SDS011;10097;50.862;4.696;2023-04-24T12:17:46;9.47;;;4.47;;
19869;SDS011;10097;50.862;4.696;2023-04-24T12:20:12;10.13;;;3.97;;
19869;SDS011;10097;50.862;4.696;2023-04-24T12:25:21;9.30;;;3.17;;
19869;SDS011;10097;50.862;4.696;2023-04-24T12:30:31;19.87;;;4.00;;
19869;SDS011;10097;50.862;4.696;2023-04-24T12:33:04;9.00;;;3.63;;
19869;SDS011;10097;50.862;4.696;2023-04-24T12:35:31;12.30;;;3.60;;
19869;SDS011;10097;50.862;4.696;2023-04-24T12:38:16;10.40;;;3.90;;
19869;SDS011;10097;50.862;4.696;2023-04-24T12:40:47;11.93;;;3.87;;
19869;SDS011;10097;50.862;4.696;2023-04-24T12:43:14;7.93;;;3.77;;
19869;SDS011;10097;50.862;4.696;2023-04-24T12:45:40;9.37;;;3.60;;
19869;SDS011;10097;50.862;4.696;2023-04-24T12:48:06;12.10;;;4.83;;
19869;SDS011;10097;50.862;4.696;2023-04-24T12:50:31;10.63;;;3.70;;
19869;SDS011;10097;50.862;4.696;2023-04-24T12:52:57;11.37;;;3.60;;
19869;SDS011;10097;50.862;4.696;2023-04-24T12:55:23;10.60;;;3.90;;
19869;SDS011;10097;50.862;4.696;2023-04-24T12:57:51;10.83;;;3.77;;
19869;SDS011;10097;50.862;4.696;2023-04-24T13:00:18;6.67;;;2.80;;
19869;SDS011;10097;50.862;4.696;2023-04-24T13:02:44;10.63;;;2.97;;
19869;SDS011;10097;50.862;4.696;2023-04-24T13:05:09;9.83;;;3.23;;
19869;SDS011;10097;50.862;4.696;2023-04-24T13:07:36;11.57;;;3.23;;
19869;SDS011;10097;50.862;4.696;2023-04-24T13:10:02;10.90;;;3.50;;
19869;SDS011;10097;50.862;4.696;2023-04-24T13:12:28;7.83;;;3.13;;
19869;SDS011;10097;50.862;4.696;2023-04-24T13:14:53;6.60;;;2.50;;
19869;SDS011;10097;50.862;4.696;2023-04-24T13:17:19;7.57;;;2.50;;
19869;SDS011;10097;50.862;4.696;2023-04-24T13:19:45;11.32;;;2.78;;
19869;SDS011;10097;50.862;4.696;2023-04-24T13:22:11;10.50;;;2.90;;
19869;SDS011;10097;50.862;4.696;2023-04-24T13:24:37;7.10;;;3.03;;
19869;SDS011;10097;50.862;4.696;2023-04-24T13:27:05;8.52;;;2.60;;
19869;SDS011;10097;50.862;4.696;2023-04-24T13:29:32;9.98;;;3.13;;
19869;SDS011;10097;50.862;4.696;2023-04-24T13:31:57;8.77;;;2.80;;
19869;SDS011;10097;50.862;4.696;2023-04-24T13:34:24;7.88;;;3.00;;
19869;SDS011;10097;50.862;4.696;2023-04-24T13:36:54;8.30;;;2.95;;
19869;SDS011;10097;50.862;4.696;2023-04-24T13:39:21;9.98;;;2.40;;
19869;SDS011;10097;50.862;4.696;2023-04-24T13:41:48;6.15;;;2.25;;
19869;SDS011;10097;50.862;4.696;2023-04-24T13:44:14;8.30;;;2.80;;
19869;SDS011;10097;50.862;4.696;2023-04-24T13:46:41;6.65;;;2.45;;
19869;SDS011;10097;50.862;4.696;2023-04-24T13:49:09;15.80;;;3.10;;
19869;SDS011;10097;50.862;4.696;2023-04-24T13:51:35;6.50;;;1.98;;
19869;SDS011;10097;50.862;4.696;2023-04-24T13:54:01;6.57;;;2.38;;
19869;SDS011;10097;50.862;4.696;2023-04-24T13:56:26;6.28;;;1.90;;
19869;SDS011;10097;50.862;4.696;2023-04-24T13:58:52;4.25;;;1.63;;
19869;SDS011;10097;50.862;4.696;2023-04-24T14:01:19;4.97;;;1.45;;
19869;SDS011;10097;50.862;4.696;2023-04-24T14:03:49;5.57;;;1.90;;
19869;SDS011;10097;50.862;4.696;2023-04-24T14:06:15;6.43;;;2.03;;
19869;SDS011;10097;50.862;4.696;2023-04-24T14:08:41;7.93;;;1.80;;
19869;SDS011;10097;50.862;4.696;2023-04-24T14:11:06;8.75;;;2.55;;
19869;SDS011;10097;50.862;4.696;2023-04-24T14:13:32;9.27;;;2.15;;
19869;SDS011;10097;50.862;4.696;2023-04-24T14:15:58;9.18;;;2.78;;
19869;SDS011;10097;50.862;4.696;2023-04-24T14:18:24;6.47;;;1.95;;
19869;SDS011;10097;50.862;4.696;2023-04-24T14:20:49;8.48;;;2.08;;
19869;SDS011;10097;50.862;4.696;2023-04-24T14:23:15;10.20;;;2.70;;
19869;SDS011;10097;50.862;4.696;2023-04-24T14:25:41;11.45;;;2.20;;
19869;SDS011;10097;50.862;4.696;2023-04-24T14:28:07;7.97;;;1.98;;
19869;SDS011;10097;50.862;4.696;2023-04-24T14:30:33;8.57;;;2.33;;
19869;SDS011;10097;50.862;4.696;2023-04-24T14:32:58;9.00;;;2.30;;
19869;SDS011;10097;50.862;4.696;2023-04-24T14:35:24;6.78;;;1.92;;
19869;SDS011;10097;50.862;4.696;2023-04-24T14:37:50;7.20;;;1.90;;
19869;SDS011;10097;50.862;4.696;2023-04-24T14:40:16;4.78;;;1.80;;
19869;SDS011;10097;50.862;4.696;2023-04-24T14:42:44;9.15;;;2.22;;
19869;SDS011;10097;50.862;4.696;2023-04-24T14:45:10;6.43;;;2.00;;
19869;SDS011;10097;50.862;4.696;2023-04-24T14:47:36;5.50;;;1.77;;
19869;SDS011;10097;50.862;4.696;2023-04-24T14:50:02;6.45;;;1.70;;
19869;SDS011;10097;50.862;4.696;2023-04-24T14:52:28;8.30;;;1.90;;
19869;SDS011;10097;50.862;4.696;2023-04-24T14:54:54;4.38;;;1.52;;